createdAt,value
2022-09-02T00:00:55.455Z,23.00
2022-09-02T00:01:55.577Z,22.98
2022-09-02T00:02:55.573Z,23.00
2022-09-02T00:03:55.442Z,22.97
2022-09-02T00:04:55.416Z,22.98
2022-09-02T00:05:55.409Z,22.98
2022-09-02T00:06:55.397Z,22.98
2022-09-02T00:07:55.379Z,22.98
2022-09-02T00:08:55.388Z,22.98
2022-09-02T00:09:55.356Z,23.00
2022-09-02T00:10:55.348Z,22.98
2022-09-02T00:11:55.359Z,22.98
2022-09-02T00:12:55.327Z,22.98
2022-09-02T00:13:55.312Z,22.97
2022-09-02T00:14:55.304Z,22.97
2022-09-02T00:15:55.291Z,22.97
2022-09-02T00:16:55.397Z,22.97
2022-09-02T00:17:55.270Z,22.95
2022-09-02T00:18:55.260Z,22.97
2022-09-02T00:19:56.207Z,22.98
2022-09-02T00:20:55.237Z,22.98
2022-09-02T00:21:55.265Z,22.97
2022-09-02T00:22:55.220Z,22.97
2022-09-02T00:23:55.205Z,22.98
2022-09-02T00:24:55.228Z,22.97
2022-09-02T00:25:55.185Z,22.97
2022-09-02T00:26:56.514Z,22.95
2022-09-02T00:27:55.185Z,22.97
2022-09-02T00:28:55.902Z,22.98
2022-09-02T00:29:55.141Z,22.98
2022-09-02T00:30:55.132Z,22.97
2022-09-02T00:31:55.190Z,22.95
2022-09-02T00:32:55.110Z,22.95
2022-09-02T00:33:55.096Z,22.95
2022-09-02T00:34:55.107Z,22.95
2022-09-02T00:35:55.074Z,22.97
2022-09-02T00:36:55.076Z,22.97
2022-09-02T00:37:55.053Z,22.97
2022-09-02T00:38:55.043Z,22.95
2022-09-02T00:39:55.054Z,22.97
2022-09-02T00:40:55.022Z,22.95
2022-09-02T00:41:55.011Z,22.95
2022-09-02T00:42:55.000Z,22.95
2022-09-02T00:43:54.993Z,22.97
2022-09-02T00:44:55.006Z,22.97
2022-09-02T00:45:55.000Z,22.95
2022-09-02T00:46:54.957Z,22.95
2022-09-02T00:47:54.946Z,22.95
2022-09-02T00:48:54.936Z,22.95
2022-09-02T00:49:54.924Z,22.97
2022-09-02T00:50:54.934Z,22.95
2022-09-02T00:51:54.921Z,22.97
2022-09-02T00:52:54.893Z,22.95
2022-09-02T00:53:54.883Z,22.94
2022-09-02T00:54:54.892Z,22.95
2022-09-02T00:55:54.885Z,22.94
2022-09-02T00:56:55.661Z,22.94
2022-09-02T00:57:54.838Z,22.94
2022-09-02T00:58:54.830Z,22.95
2022-09-02T00:59:54.816Z,22.95
2022-09-02T01:00:54.884Z,22.95
2022-09-02T01:01:54.982Z,22.95
2022-09-02T01:02:54.789Z,22.95
2022-09-02T01:03:54.775Z,22.94
2022-09-02T01:04:54.767Z,22.94
2022-09-02T01:05:54.754Z,22.95
2022-09-02T01:06:54.765Z,22.94
2022-09-02T01:07:54.733Z,22.94
2022-09-02T01:08:54.724Z,22.94
2022-09-02T01:09:54.730Z,22.94
2022-09-02T01:10:54.704Z,22.95
2022-09-02T01:11:54.687Z,22.95
2022-09-02T01:12:54.678Z,22.94
2022-09-02T01:13:54.690Z,22.94
2022-09-02T01:14:54.679Z,22.94
2022-09-02T01:15:54.700Z,22.92
2022-09-02T01:16:54.635Z,22.94
2022-09-02T01:17:54.624Z,22.94
2022-09-02T01:18:54.634Z,22.94
2022-09-02T01:19:54.602Z,22.92
2022-09-02T01:20:54.594Z,22.92
2022-09-02T01:21:54.581Z,22.92
2022-09-02T01:22:54.574Z,22.94
2022-09-02T01:23:54.587Z,22.94
2022-09-02T01:24:54.550Z,22.92
2022-09-02T01:25:54.537Z,22.94
2022-09-02T01:26:54.536Z,22.94
2022-09-02T01:27:54.515Z,22.92
2022-09-02T01:28:54.505Z,22.92
2022-09-02T01:29:54.513Z,22.92
2022-09-02T01:30:54.483Z,22.94
2022-09-02T01:31:54.533Z,22.94
2022-09-02T01:32:54.464Z,22.94
2022-09-02T01:33:54.460Z,22.94
2022-09-02T01:34:54.463Z,22.94
2022-09-02T01:35:54.450Z,22.92
2022-09-02T01:36:54.419Z,22.92
2022-09-02T01:37:55.885Z,22.92
2022-09-02T01:38:54.400Z,22.92
2022-09-02T01:39:54.387Z,22.92
2022-09-02T01:40:54.375Z,22.94
2022-09-02T01:41:54.383Z,22.92
2022-09-02T01:42:54.375Z,22.94
2022-09-02T01:43:54.343Z,22.92
2022-09-02T01:44:54.332Z,22.92
2022-09-02T01:45:54.320Z,22.92
2022-09-02T01:46:54.397Z,22.92
2022-09-02T01:47:54.324Z,22.92
2022-09-02T01:48:54.293Z,22.92
2022-09-02T01:49:54.279Z,22.94
2022-09-02T01:50:54.271Z,22.91
2022-09-02T01:51:54.260Z,22.92
2022-09-02T01:52:54.266Z,22.92
2022-09-02T01:53:54.235Z,22.92
2022-09-02T01:54:54.225Z,22.94
2022-09-02T01:55:54.216Z,22.94
2022-09-02T01:56:54.206Z,22.92
2022-09-02T01:57:54.211Z,22.92
2022-09-02T01:58:54.185Z,22.92
2022-09-02T01:59:54.171Z,22.92
2022-09-02T02:00:54.283Z,22.92
2022-09-02T02:01:54.224Z,22.92
2022-09-02T02:02:54.160Z,22.92
2022-09-02T02:03:54.131Z,22.92
2022-09-02T02:04:54.118Z,22.92
2022-09-02T02:05:54.111Z,22.94
2022-09-02T02:06:54.097Z,22.92
2022-09-02T02:07:54.123Z,22.94
2022-09-02T02:08:54.101Z,22.92
2022-09-02T02:09:54.069Z,22.92
2022-09-02T02:10:54.055Z,22.92
2022-09-02T02:11:54.048Z,22.92
2022-09-02T02:12:54.032Z,22.94
2022-09-02T02:13:54.027Z,22.92
2022-09-02T02:14:54.999Z,22.92
2022-09-02T02:15:54.035Z,22.91
2022-09-02T02:16:53.990Z,22.92
2022-09-02T02:17:53.981Z,22.92
2022-09-02T02:18:53.967Z,22.91
2022-09-02T02:19:53.984Z,22.91
2022-09-02T02:20:53.946Z,22.92
2022-09-02T02:21:53.934Z,22.92
2022-09-02T02:22:53.929Z,22.91
2022-09-02T02:23:53.915Z,22.91
2022-09-02T02:24:53.925Z,22.91
2022-09-02T02:25:53.894Z,22.92
2022-09-02T02:26:53.882Z,22.91
2022-09-02T02:27:53.874Z,22.91
2022-09-02T02:28:53.860Z,22.91
2022-09-02T02:29:53.852Z,22.90
2022-09-02T02:30:54.020Z,22.91
2022-09-02T02:31:53.833Z,22.91
2022-09-02T02:32:53.817Z,22.91
2022-09-02T02:33:53.807Z,22.90
2022-09-02T02:34:53.796Z,22.91
2022-09-02T02:35:53.804Z,22.91
2022-09-02T02:36:53.774Z,22.92
2022-09-02T02:37:53.788Z,22.91
2022-09-02T02:38:53.753Z,22.91
2022-09-02T02:39:53.743Z,22.90
2022-09-02T02:40:53.881Z,22.91
2022-09-02T02:41:53.721Z,22.91
2022-09-02T02:42:53.709Z,22.91
2022-09-02T02:43:53.701Z,22.91
2022-09-02T02:44:53.688Z,22.90
2022-09-02T02:45:53.698Z,22.90
2022-09-02T02:46:53.717Z,22.91
2022-09-02T02:47:53.655Z,22.90
2022-09-02T02:48:53.667Z,22.90
2022-09-02T02:49:53.634Z,22.91
2022-09-02T02:50:53.624Z,22.90
2022-09-02T02:51:53.615Z,22.90
2022-09-02T02:52:53.601Z,22.90
2022-09-02T02:53:58.174Z,22.90
2022-09-02T02:54:54.602Z,22.90
2022-09-02T02:55:53.570Z,22.90
2022-09-02T02:56:53.559Z,22.90
2022-09-02T02:57:53.567Z,22.90
2022-09-02T02:58:53.538Z,22.90
2022-09-02T02:59:53.529Z,22.90
2022-09-02T03:00:53.527Z,22.90
2022-09-02T03:01:53.628Z,22.90
2022-09-02T03:02:53.614Z,22.90
2022-09-02T03:03:53.487Z,22.88
2022-09-02T03:04:53.490Z,22.88
2022-09-02T03:05:53.465Z,22.88
2022-09-02T03:06:53.462Z,22.90
2022-09-02T03:07:53.444Z,22.90
2022-09-02T03:08:53.448Z,22.91
2022-09-02T03:09:53.420Z,22.91
2022-09-02T03:10:53.446Z,22.88
2022-09-02T03:11:53.400Z,22.90
2022-09-02T03:12:53.387Z,22.88
2022-09-02T03:13:53.379Z,22.88
2022-09-02T03:14:53.365Z,22.88
2022-09-02T03:15:53.520Z,22.90
2022-09-02T03:16:53.363Z,22.88
2022-09-02T03:17:53.336Z,22.90
2022-09-02T03:18:53.321Z,22.88
2022-09-02T03:19:53.316Z,22.86
2022-09-02T03:20:53.301Z,22.88
2022-09-02T03:21:53.319Z,22.88
2022-09-02T03:22:53.281Z,22.88
2022-09-02T03:23:53.269Z,22.88
2022-09-02T03:24:53.257Z,22.90
2022-09-02T03:25:53.250Z,22.86
2022-09-02T03:26:53.255Z,22.88
2022-09-02T03:27:53.224Z,22.88
2022-09-02T03:28:53.215Z,22.88
2022-09-02T03:29:53.207Z,22.86
2022-09-02T03:30:53.259Z,22.86
2022-09-02T03:31:53.182Z,22.86
2022-09-02T03:32:53.180Z,22.86
2022-09-02T03:33:53.164Z,22.85
2022-09-02T03:34:53.149Z,22.86
2022-09-02T03:35:53.139Z,22.86
2022-09-02T03:36:53.148Z,22.88
2022-09-02T03:37:53.140Z,22.88
2022-09-02T03:38:53.132Z,22.86
2022-09-02T03:39:53.098Z,22.88
2022-09-02T03:40:53.160Z,22.86
2022-09-02T03:41:53.074Z,22.88
2022-09-02T03:42:56.654Z,22.86
2022-09-02T03:43:54.079Z,22.88
2022-09-02T03:44:53.041Z,22.86
2022-09-02T03:45:53.099Z,22.86
2022-09-02T03:46:53.020Z,22.88
2022-09-02T03:47:53.011Z,22.88
2022-09-02T03:48:53.000Z,22.86
2022-09-02T03:49:53.015Z,22.88
2022-09-02T03:50:52.995Z,22.86
2022-09-02T03:51:52.966Z,22.86
2022-09-02T03:52:52.958Z,22.86
2022-09-02T03:53:52.947Z,22.85
2022-09-02T03:54:52.935Z,22.86
2022-09-02T03:55:52.951Z,22.86
2022-09-02T03:56:52.912Z,22.88
2022-09-02T03:57:52.906Z,22.86
2022-09-02T03:58:52.890Z,22.86
2022-09-02T03:59:52.881Z,22.86
2022-09-02T04:00:52.871Z,22.86
2022-09-02T04:01:53.037Z,22.86
2022-09-02T04:02:52.917Z,22.86
2022-09-02T04:03:52.840Z,22.88
2022-09-02T04:04:52.827Z,22.86
2022-09-02T04:05:52.824Z,22.86
2022-09-02T04:06:52.805Z,22.86
2022-09-02T04:07:52.798Z,22.86
2022-09-02T04:08:52.807Z,22.86
2022-09-02T04:09:52.775Z,22.85
2022-09-02T04:10:52.762Z,22.86
2022-09-02T04:11:52.751Z,22.85
2022-09-02T04:12:52.740Z,22.86
2022-09-02T04:13:52.732Z,22.86
2022-09-02T04:14:52.739Z,22.86
2022-09-02T04:15:52.815Z,22.86
2022-09-02T04:16:52.697Z,22.86
2022-09-02T04:17:52.689Z,22.86
2022-09-02T04:18:52.677Z,22.85
2022-09-02T04:19:52.693Z,22.86
2022-09-02T04:20:52.653Z,22.86
2022-09-02T04:21:52.670Z,22.86
2022-09-02T04:22:52.632Z,22.86
2022-09-02T04:23:52.621Z,22.85
2022-09-02T04:24:52.634Z,22.85
2022-09-02T04:25:52.605Z,22.85
2022-09-02T04:26:52.592Z,22.85
2022-09-02T04:27:52.582Z,22.86
2022-09-02T04:28:52.589Z,22.86
2022-09-02T04:29:52.557Z,22.86
2022-09-02T04:30:52.623Z,22.85
2022-09-02T04:31:52.536Z,22.85
2022-09-02T04:32:52.525Z,22.86
2022-09-02T04:33:52.516Z,22.85
2022-09-02T04:34:52.522Z,22.86
2022-09-02T04:35:52.494Z,22.85
2022-09-02T04:36:52.482Z,22.85
2022-09-02T04:37:52.475Z,22.86
2022-09-02T04:38:52.460Z,22.86
2022-09-02T04:39:52.479Z,22.85
2022-09-02T04:40:52.481Z,22.85
2022-09-02T04:41:52.429Z,22.85
2022-09-02T04:42:55.338Z,22.85
2022-09-02T04:43:52.408Z,22.85
2022-09-02T04:44:52.396Z,22.85
2022-09-02T04:45:52.452Z,22.85
2022-09-02T04:46:52.374Z,22.86
2022-09-02T04:47:52.367Z,22.83
2022-09-02T04:48:52.352Z,22.85
2022-09-02T04:49:52.347Z,22.83
2022-09-02T04:50:52.332Z,22.85
2022-09-02T04:51:52.345Z,22.85
2022-09-02T04:52:52.310Z,22.85
2022-09-02T04:53:52.299Z,22.83
2022-09-02T04:54:52.288Z,22.85
2022-09-02T04:55:57.833Z,22.83
2022-09-02T04:56:53.265Z,22.83
2022-09-02T04:57:52.257Z,22.85
2022-09-02T04:58:52.270Z,22.83
2022-09-02T04:59:52.235Z,22.82
2022-09-02T05:00:52.225Z,22.83
2022-09-02T05:01:52.280Z,22.85
2022-09-02T05:02:52.265Z,22.83
2022-09-02T05:03:52.192Z,22.85
2022-09-02T05:04:52.202Z,22.83
2022-09-02T05:05:52.169Z,22.85
2022-09-02T05:06:52.160Z,22.83
2022-09-02T05:07:52.148Z,22.82
2022-09-02T05:08:52.137Z,22.83
2022-09-02T05:09:52.145Z,22.83
2022-09-02T05:10:52.118Z,22.82
2022-09-02T05:11:52.132Z,22.83
2022-09-02T05:12:52.094Z,22.83
2022-09-02T05:13:52.083Z,22.83
2022-09-02T05:14:52.091Z,22.82
2022-09-02T05:15:52.096Z,22.83
2022-09-02T05:16:52.049Z,22.83
2022-09-02T05:17:52.039Z,22.83
2022-09-02T05:18:52.028Z,22.83
2022-09-02T05:19:52.036Z,22.83
2022-09-02T05:20:52.010Z,22.82
2022-09-02T05:21:51.999Z,22.82
2022-09-02T05:22:51.989Z,22.85
2022-09-02T05:23:51.975Z,22.85
2022-09-02T05:24:51.986Z,22.82
2022-09-02T05:25:51.954Z,22.85
2022-09-02T05:26:51.943Z,22.83
2022-09-02T05:27:51.932Z,22.83
2022-09-02T05:28:51.941Z,22.83
2022-09-02T05:29:51.910Z,22.82
2022-09-02T05:30:51.943Z,22.85
2022-09-02T05:31:51.909Z,22.82
2022-09-02T05:32:51.882Z,22.83
2022-09-02T05:33:51.887Z,22.83
2022-09-02T05:34:51.856Z,22.82
2022-09-02T05:35:51.846Z,22.82
2022-09-02T05:36:51.839Z,22.83
2022-09-02T05:37:51.828Z,22.83
2022-09-02T05:38:51.835Z,22.82
2022-09-02T05:39:51.802Z,22.82
2022-09-02T05:40:51.817Z,22.83
2022-09-02T05:41:51.782Z,22.83
2022-09-02T05:42:51.792Z,22.83
2022-09-02T05:43:51.759Z,22.83
2022-09-02T05:44:51.752Z,22.82
2022-09-02T05:45:51.794Z,22.83
2022-09-02T05:46:51.730Z,22.82
2022-09-02T05:47:51.740Z,22.83
2022-09-02T05:48:51.709Z,22.83
2022-09-02T05:49:51.696Z,22.80
2022-09-02T05:50:57.778Z,22.83
2022-09-02T05:51:52.673Z,22.83
2022-09-02T05:52:51.671Z,22.82
2022-09-02T05:53:51.672Z,22.82
2022-09-02T05:54:51.664Z,22.82
2022-09-02T05:55:51.632Z,22.82
2022-09-02T05:56:51.639Z,22.82
2022-09-02T05:57:51.609Z,22.82
2022-09-02T05:58:51.602Z,22.85
2022-09-02T05:59:51.593Z,22.83
2022-09-02T06:00:51.600Z,22.82
2022-09-02T06:01:51.629Z,22.83
2022-09-02T06:02:51.665Z,22.82
2022-09-02T06:03:51.545Z,22.83
2022-09-02T06:04:51.556Z,22.82
2022-09-02T06:05:51.523Z,22.82
2022-09-02T06:06:51.513Z,22.82
2022-09-02T06:07:51.504Z,22.83
2022-09-02T06:08:51.497Z,22.83
2022-09-02T06:09:51.480Z,22.83
2022-09-02T06:10:51.493Z,22.83
2022-09-02T06:11:51.458Z,22.83
2022-09-02T06:12:51.452Z,22.83
2022-09-02T06:13:51.438Z,22.82
2022-09-02T06:14:51.429Z,22.83
2022-09-02T06:15:51.504Z,22.80
2022-09-02T06:16:51.427Z,22.82
2022-09-02T06:17:51.396Z,22.83
2022-09-02T06:18:51.385Z,22.82
2022-09-02T06:19:52.836Z,22.83
2022-09-02T06:20:51.364Z,22.83
2022-09-02T06:21:51.371Z,22.83
2022-09-02T06:22:51.343Z,22.82
2022-09-02T06:23:51.330Z,22.83
2022-09-02T06:24:51.319Z,22.83
2022-09-02T06:25:51.339Z,22.83
2022-09-02T06:26:51.301Z,22.83
2022-09-02T06:27:51.287Z,22.82
2022-09-02T06:28:51.276Z,22.82
2022-09-02T06:29:51.267Z,22.82
2022-09-02T06:30:51.292Z,22.82
2022-09-02T06:31:51.266Z,22.83
2022-09-02T06:32:51.238Z,22.83
2022-09-02T06:33:51.222Z,22.83
2022-09-02T06:34:51.213Z,22.85
2022-09-02T06:35:51.201Z,22.85
2022-09-02T06:36:51.281Z,22.85
2022-09-02T06:37:51.178Z,22.85
2022-09-02T06:38:51.166Z,22.86
2022-09-02T06:39:51.157Z,22.86
2022-09-02T06:40:51.227Z,22.88
2022-09-02T06:41:51.157Z,22.86
2022-09-02T06:42:51.126Z,22.86
2022-09-02T06:43:51.113Z,22.88
2022-09-02T06:44:51.103Z,22.90
2022-09-02T06:45:51.224Z,22.88
2022-09-02T06:46:51.085Z,22.88
2022-09-02T06:47:51.093Z,22.88
2022-09-02T06:48:51.064Z,22.90
2022-09-02T06:49:51.049Z,22.90
2022-09-02T06:50:51.038Z,22.90
2022-09-02T06:51:51.030Z,22.88
2022-09-02T06:52:51.041Z,22.90
2022-09-02T06:53:51.009Z,22.88
2022-09-02T06:54:51.010Z,22.90
2022-09-02T06:55:51.013Z,22.90
2022-09-02T06:56:50.977Z,22.91
2022-09-02T06:57:50.986Z,22.90
2022-09-02T06:58:50.956Z,22.90
2022-09-02T06:59:50.945Z,22.91
2022-09-02T07:00:50.940Z,22.91
2022-09-02T07:01:51.179Z,22.91
2022-09-02T07:02:50.911Z,22.91
2022-09-02T07:03:50.919Z,22.92
2022-09-02T07:04:53.171Z,22.91
2022-09-02T07:05:50.882Z,22.92
2022-09-02T07:06:50.868Z,22.94
2022-09-02T07:07:50.863Z,22.94
2022-09-02T07:08:50.869Z,22.92
2022-09-02T07:09:50.835Z,22.92
2022-09-02T07:10:50.828Z,22.94
2022-09-02T07:11:50.843Z,22.92
2022-09-02T07:12:50.822Z,22.95
2022-09-02T07:13:50.792Z,22.92
2022-09-02T07:14:50.784Z,22.95
2022-09-02T07:15:50.771Z,22.95
2022-09-02T07:16:50.868Z,22.97
2022-09-02T07:17:50.771Z,22.97
2022-09-02T07:18:50.741Z,22.95
2022-09-02T07:19:50.727Z,22.97
2022-09-02T07:20:50.719Z,22.97
2022-09-02T07:21:50.706Z,22.97
2022-09-02T07:23:50.709Z,22.97
2022-09-02T07:24:50.693Z,22.97
2022-09-02T07:25:50.662Z,22.98
2022-09-02T07:26:50.663Z,23.00
2022-09-02T07:27:50.666Z,23.00
2022-09-02T07:28:50.651Z,23.00
2022-09-02T07:29:50.619Z,23.01
2022-09-02T07:30:50.669Z,23.01
2022-09-02T07:31:50.598Z,23.01
2022-09-02T07:32:50.589Z,23.02
2022-09-02T07:33:50.607Z,23.02
2022-09-02T07:34:50.608Z,23.02
2022-09-02T07:35:50.554Z,23.04
2022-09-02T07:36:50.543Z,23.02
2022-09-02T07:37:50.539Z,23.02
2022-09-02T07:38:50.543Z,23.04
2022-09-02T07:39:50.530Z,23.04
2022-09-02T07:40:50.503Z,23.04
2022-09-02T07:41:51.490Z,23.04
2022-09-02T07:42:50.595Z,23.04
2022-09-02T07:43:51.795Z,23.04
2022-09-02T07:44:50.466Z,23.05
2022-09-02T07:45:50.490Z,23.04
2022-09-02T07:46:50.436Z,23.05
2022-09-02T07:47:50.444Z,23.05
2022-09-02T07:48:50.416Z,23.05
2022-09-02T07:50:51.392Z,23.02
2022-09-02T07:51:50.411Z,23.05
2022-09-02T07:52:50.381Z,23.05
2022-09-02T07:53:50.363Z,23.04
2022-09-02T07:54:50.438Z,23.05
2022-09-02T07:55:50.337Z,23.05
2022-09-02T07:56:50.329Z,23.05
2022-09-02T07:57:50.336Z,23.04
2022-09-02T07:58:50.308Z,23.04
2022-09-02T07:59:50.294Z,23.05
2022-09-02T08:00:50.287Z,23.05
2022-09-02T08:01:50.280Z,23.05
2022-09-02T08:02:50.470Z,23.04
2022-09-02T08:03:50.259Z,23.04
2022-09-02T08:04:50.268Z,23.05
2022-09-02T08:05:50.232Z,23.05
2022-09-02T08:06:50.240Z,23.05
2022-09-02T08:07:50.213Z,23.05
2022-09-02T08:08:50.248Z,23.05
2022-09-02T08:09:50.208Z,23.07
2022-09-02T08:10:50.242Z,23.05
2022-09-02T08:11:50.170Z,23.05
2022-09-02T08:12:50.157Z,23.05
2022-09-02T08:13:50.164Z,23.05
2022-09-02T08:14:50.164Z,23.07
2022-09-02T08:15:50.861Z,23.05
2022-09-02T08:16:50.222Z,23.05
2022-09-02T08:17:50.105Z,23.04
2022-09-02T08:18:50.092Z,23.04
2022-09-02T08:19:50.082Z,23.02
2022-09-02T08:20:50.093Z,23.04
2022-09-02T08:21:50.063Z,23.05
2022-09-02T08:22:59.276Z,23.04
2022-09-02T08:23:51.041Z,23.04
2022-09-02T08:24:50.029Z,23.02
2022-09-02T08:25:50.046Z,23.02
2022-09-02T08:26:50.010Z,23.02
2022-09-02T08:27:50.046Z,23.02
2022-09-02T08:28:49.987Z,23.02
2022-09-02T08:29:49.977Z,23.01
2022-09-02T08:30:49.984Z,23.02
2022-09-02T08:31:52.142Z,23.01
2022-09-02T08:32:49.944Z,23.02
2022-09-02T08:33:49.934Z,23.01
2022-09-02T08:34:49.923Z,23.02
2022-09-02T08:35:49.935Z,23.01
2022-09-02T08:36:56.716Z,23.01
2022-09-02T08:37:50.892Z,23.01
2022-09-02T08:38:49.899Z,23.01
2022-09-02T08:39:49.870Z,23.00
2022-09-02T08:40:49.934Z,23.00
2022-09-02T08:41:49.944Z,23.00
2022-09-02T08:42:51.789Z,23.01
2022-09-02T08:43:49.829Z,23.01
2022-09-02T08:44:49.816Z,23.00
2022-09-02T08:45:49.842Z,23.02
2022-09-02T08:46:49.815Z,23.02
2022-09-02T08:47:49.788Z,23.07
2022-09-02T08:48:49.777Z,23.07
2022-09-02T08:49:49.767Z,23.13
2022-09-02T08:50:49.783Z,23.17
2022-09-02T08:51:51.043Z,23.17
2022-09-02T08:52:49.733Z,23.20
2022-09-02T08:53:49.722Z,23.20
2022-09-02T08:54:49.712Z,23.23
2022-09-02T08:55:49.704Z,23.22
2022-09-02T08:56:49.712Z,23.22
2022-09-02T08:57:49.683Z,23.20
2022-09-02T08:58:49.673Z,23.20
2022-09-02T08:59:49.661Z,23.20
2022-09-02T09:00:49.686Z,23.20
2022-09-02T09:01:49.846Z,23.20
2022-09-02T09:02:49.691Z,23.20
2022-09-02T09:03:49.619Z,23.20
2022-09-02T09:04:49.607Z,23.19
2022-09-02T09:05:49.602Z,23.20
2022-09-02T09:06:49.677Z,23.19
2022-09-02T09:07:49.597Z,23.19
2022-09-02T09:08:49.572Z,23.16
2022-09-02T09:09:49.565Z,23.17
2022-09-02T09:10:49.544Z,23.16
2022-09-02T09:11:49.534Z,23.16
2022-09-02T09:12:49.547Z,23.16
2022-09-02T09:13:49.515Z,23.15
2022-09-02T09:14:49.506Z,23.15
2022-09-02T09:15:49.495Z,23.13
2022-09-02T09:16:49.609Z,23.13
2022-09-02T09:17:49.472Z,23.15
2022-09-02T09:18:49.591Z,23.13
2022-09-02T09:19:49.449Z,23.13
2022-09-02T09:20:49.440Z,23.12
2022-09-02T09:21:49.448Z,23.10
2022-09-02T09:22:49.421Z,23.12
2022-09-02T09:23:49.409Z,23.12
2022-09-02T09:24:49.399Z,23.13
2022-09-02T09:25:49.389Z,23.10
2022-09-02T09:26:49.399Z,23.10
2022-09-02T09:27:49.365Z,23.10
2022-09-02T09:28:49.357Z,23.12
2022-09-02T09:29:49.345Z,23.10
2022-09-02T09:30:49.336Z,23.09
2022-09-02T09:31:49.415Z,23.12
2022-09-02T09:32:49.335Z,23.10
2022-09-02T09:33:49.303Z,23.12
2022-09-02T09:34:49.294Z,23.12
2022-09-02T09:35:49.280Z,23.13
2022-09-02T09:36:49.299Z,23.13
2022-09-02T09:37:49.281Z,23.12
2022-09-02T09:38:49.251Z,23.12
2022-09-02T09:39:49.240Z,23.13
2022-09-02T09:40:49.330Z,23.13
2022-09-02T09:41:49.218Z,23.13
2022-09-02T09:42:49.985Z,23.15
2022-09-02T09:43:49.217Z,23.15
2022-09-02T09:44:49.188Z,23.15
2022-09-02T09:45:49.360Z,23.15
2022-09-02T09:46:49.167Z,23.16
2022-09-02T09:47:49.152Z,23.17
2022-09-02T09:48:50.169Z,23.20
2022-09-02T09:49:49.133Z,23.20
2022-09-02T09:50:49.125Z,23.20
2022-09-02T09:51:49.887Z,23.22
2022-09-02T09:52:49.102Z,23.23
2022-09-02T09:53:49.092Z,23.25
2022-09-02T09:54:49.103Z,23.27
2022-09-02T09:55:49.070Z,23.25
2022-09-02T09:56:49.065Z,23.25
2022-09-02T09:57:49.049Z,23.27
2022-09-02T09:58:49.059Z,23.25
2022-09-02T09:59:49.031Z,23.25
2022-09-02T10:00:49.167Z,23.27
2022-09-02T10:01:49.050Z,23.27
2022-09-02T10:02:49.017Z,23.25
2022-09-02T10:03:48.990Z,23.25
2022-09-02T10:04:49.007Z,23.27
2022-09-02T10:05:48.987Z,23.28
2022-09-02T10:06:48.956Z,23.28
2022-09-02T10:07:48.944Z,23.28
2022-09-02T10:08:48.955Z,23.28
2022-09-02T10:09:48.941Z,23.27
2022-09-02T10:10:48.915Z,23.28
2022-09-02T10:11:48.901Z,23.27
2022-09-02T10:12:48.910Z,23.27
2022-09-02T10:13:48.882Z,23.28
2022-09-02T10:14:48.895Z,23.31
2022-09-02T10:15:48.865Z,23.31
2022-09-02T10:16:48.970Z,23.31
2022-09-02T10:17:48.840Z,23.31
2022-09-02T10:18:49.227Z,23.31
2022-09-02T10:19:48.838Z,23.31
2022-09-02T10:21:11.577Z,23.31
2022-09-02T10:21:49.795Z,23.32
2022-09-02T10:22:59.789Z,23.28
2022-09-02T10:23:49.774Z,23.28
2022-09-02T10:24:48.786Z,23.28
2022-09-02T10:25:48.753Z,23.28
2022-09-02T10:26:48.744Z,23.27
2022-09-02T10:27:48.733Z,23.28
2022-09-02T10:28:48.749Z,23.28
2022-09-02T10:29:48.731Z,23.27
2022-09-02T10:30:48.728Z,23.27
2022-09-02T10:31:48.786Z,23.25
2022-09-02T10:32:48.684Z,23.25
2022-09-02T10:33:48.671Z,23.27
2022-09-02T10:34:48.691Z,23.25
2022-09-02T10:35:48.648Z,23.25
2022-09-02T10:36:48.647Z,23.25
2022-09-02T10:37:48.627Z,23.27
2022-09-02T10:38:48.617Z,23.25
2022-09-02T10:39:48.608Z,23.25
2022-09-02T10:40:48.698Z,23.25
2022-09-02T10:41:48.585Z,23.27
2022-09-02T10:42:48.594Z,23.27
2022-09-02T10:43:48.563Z,23.27
2022-09-02T10:44:49.552Z,23.28
2022-09-02T10:45:48.541Z,23.28
2022-09-02T10:46:48.606Z,23.28
2022-09-02T10:47:48.575Z,23.31
2022-09-02T10:48:48.512Z,23.28
2022-09-02T10:49:48.501Z,23.27
2022-09-02T10:50:50.089Z,23.27
2022-09-02T10:51:48.477Z,23.28
2022-09-02T10:52:48.490Z,23.27
2022-09-02T10:53:48.461Z,23.27
2022-09-02T10:54:48.445Z,23.28
2022-09-02T10:55:48.456Z,23.27
2022-09-02T10:56:48.429Z,23.25
2022-09-02T10:57:48.414Z,23.27
2022-09-02T10:58:48.440Z,23.27
2022-09-02T10:59:48.423Z,23.25
2022-09-02T11:00:48.441Z,23.25
2022-09-02T11:01:48.391Z,23.25
2022-09-02T11:02:48.364Z,23.23
2022-09-02T11:03:49.802Z,23.23
2022-09-02T11:04:48.343Z,23.23
2022-09-02T11:05:48.329Z,23.23
2022-09-02T11:07:03.995Z,23.23
2022-09-02T11:07:49.308Z,23.23
2022-09-02T11:08:48.301Z,23.23
2022-09-02T11:09:48.307Z,23.22
2022-09-02T11:10:48.309Z,23.23
2022-09-02T11:11:48.285Z,23.22
2022-09-02T11:12:48.259Z,23.23
2022-09-02T11:13:48.270Z,23.23
2022-09-02T11:14:48.237Z,23.22
2022-09-02T11:15:48.293Z,23.22
2022-09-02T11:16:48.221Z,23.22
2022-09-02T11:17:48.214Z,23.22
2022-09-02T11:18:48.196Z,23.20
2022-09-02T11:19:48.208Z,23.22
2022-09-02T11:20:48.173Z,23.23
2022-09-02T11:21:48.175Z,23.23
2022-09-02T11:22:48.154Z,23.23
2022-09-02T11:23:48.308Z,23.22
2022-09-02T11:24:48.154Z,23.22
2022-09-02T11:25:48.139Z,23.20
2022-09-02T11:26:48.111Z,23.22
2022-09-02T11:27:48.104Z,23.22
2022-09-02T11:28:48.092Z,23.22
2022-09-02T11:29:48.079Z,23.20
2022-09-02T11:30:48.204Z,23.20
2022-09-02T11:31:48.058Z,23.20
2022-09-02T11:32:48.071Z,23.20
2022-09-02T11:33:48.052Z,23.20
2022-09-02T11:34:48.030Z,23.22
2022-09-02T11:35:48.040Z,23.22
2022-09-02T11:36:48.009Z,23.20
2022-09-02T11:37:47.996Z,23.19
2022-09-02T11:38:47.985Z,23.22
2022-09-02T11:40:06.669Z,23.22
2022-09-02T11:41:32.875Z,23.20
2022-09-02T11:41:48.981Z,23.20
2022-09-02T11:42:47.945Z,23.20
2022-09-02T11:43:48.011Z,23.20
2022-09-02T11:44:52.476Z,23.22
2022-09-02T11:45:49.003Z,23.22
2022-09-02T11:46:47.972Z,23.20
2022-09-02T11:47:47.891Z,23.20
2022-09-02T11:48:47.883Z,23.22
2022-09-02T11:49:47.891Z,23.22
2022-09-02T11:50:47.859Z,23.22
2022-09-02T11:51:47.868Z,23.23
2022-09-02T11:52:47.840Z,23.23
2022-09-02T11:53:47.826Z,23.25
2022-09-02T11:54:48.822Z,23.25
2022-09-02T11:55:47.804Z,23.25
2022-09-02T11:56:47.817Z,23.25
2022-09-02T11:57:47.806Z,23.25
2022-09-02T11:58:47.782Z,23.27
2022-09-02T11:59:47.764Z,23.27
2022-09-02T12:00:47.756Z,23.28
2022-09-02T12:01:47.741Z,23.28
2022-09-02T12:02:47.755Z,23.28
2022-09-02T12:04:16.134Z,23.31
2022-09-02T12:04:59.885Z,23.31
2022-09-02T12:05:48.849Z,23.31
2022-09-02T12:06:47.809Z,23.31
2022-09-02T12:07:47.680Z,23.31
2022-09-02T12:08:47.671Z,23.31
2022-09-02T12:09:47.995Z,23.31
2022-09-02T12:10:47.652Z,23.31
2022-09-02T12:11:47.639Z,23.31
2022-09-02T12:12:51.318Z,23.31
2022-09-02T12:13:47.664Z,23.32
2022-09-02T12:14:47.629Z,23.32
2022-09-02T12:15:47.712Z,23.32
2022-09-02T12:16:47.588Z,23.33
2022-09-02T12:17:47.578Z,23.32
2022-09-02T12:18:47.564Z,23.33
2022-09-02T12:19:47.555Z,23.32
2022-09-02T12:20:51.170Z,23.33
2022-09-02T12:21:47.534Z,23.33
2022-09-02T12:22:47.523Z,23.33
2022-09-02T12:23:47.534Z,23.33
2022-09-02T12:24:47.507Z,23.33
2022-09-02T12:25:47.495Z,23.32
2022-09-02T12:26:47.484Z,23.35
2022-09-02T12:27:47.474Z,23.35
2022-09-02T12:28:47.461Z,23.33
2022-09-02T12:29:47.469Z,23.35
2022-09-02T12:30:47.443Z,23.33
2022-09-02T12:31:47.491Z,23.35
2022-09-02T12:32:47.419Z,23.35
2022-09-02T12:33:47.409Z,23.35
2022-09-02T12:34:47.421Z,23.35
2022-09-02T12:35:47.389Z,23.36
2022-09-02T12:36:47.379Z,23.36
2022-09-02T12:37:47.366Z,23.38
2022-09-02T12:38:47.360Z,23.36
2022-09-02T12:39:47.348Z,23.36
2022-09-02T12:40:47.421Z,23.38
2022-09-02T12:41:47.326Z,23.36
2022-09-02T12:42:48.461Z,23.36
2022-09-02T12:43:47.305Z,23.35
2022-09-02T12:44:47.325Z,23.36
2022-09-02T12:45:47.282Z,23.35
2022-09-02T12:46:47.288Z,23.36
2022-09-02T12:47:47.262Z,23.35
2022-09-02T12:48:47.255Z,23.35
2022-09-02T12:49:47.242Z,23.35
2022-09-02T12:50:47.261Z,23.35
2022-09-02T12:51:47.220Z,23.35
2022-09-02T12:52:47.211Z,23.36
2022-09-02T12:53:47.217Z,23.33
2022-09-02T12:54:47.190Z,23.32